• Join FlightAware (Why Join?)
  • Login
  • US Flag 
Trick or treat! (Boo!!) 
11:48AM EDT


 

Airport Tracker/Info


-or-


 

Live Flight TrackerFlight Track Log ✈ KAP927 ✈ 08-Jun-2013 ✈ KBOS - KALB

Flight Track Log - Related Links

Times and Time Zones

All times are in EDT time to prevent confusion due to time zone crossing. See the KAP927 flight status page for this flight to view local times or setup timezone preferences in your user account.

Time Position Orientation Groundspeed Altitude Reporting Facility
EDT Latitude Longitude Course Direction KTS MPH feet Rate Location/Type
01:01PM 42.3667 -71.0167 246° West 104 120 400  Level KA90
01:02PM 42.3500 -71.0667 246° West 98 113 1,800 780 Climbing KA90
01:03PM 42.3333 -71.1000 236° Southwest 99 114 2,500 720 Climbing KA90
01:04PM 42.3333 -71.1333 270° West 104 120 3,300 780 Climbing KA90
01:05PM 42.3167 -71.1833 246° West 108 124 4,100 720 Climbing KA90
01:06PM 42.3167 -71.2167 270° West 107 123 4,700 600 Climbing KA90
01:07PM 42.3167 -71.2500 270° West 103 119 5,300 480 Climbing KA90
01:08PM 42.3167 -71.3000 270° West 116 133 5,700 420 Climbing KA90
01:09PM 42.3167 -71.3333 270° West 122 140 6,200 480 Climbing KA90
01:10PM 42.3000 -71.3833 246° West 124 143 6,700 360 Climbing KA90
01:10PM 42.3000 -71.4128 270° West 124 143 6,800 360 Climbing Boston Center
01:11PM 42.2983 -71.4578 267° West 123 142 7,300 420 Climbing Boston Center
01:12PM 42.2922 -71.5056 260° West 122 140 7,700 300 Climbing Boston Center
01:13PM 42.2886 -71.5506 264° West 123 142 8,000 120 Climbing Boston Center
01:14PM 42.2828 -71.6067 262° West 141 162 8,000  Level Boston Center
01:16PM 42.2831 -71.6572 270° West 143 165 8,000  Level Boston Center
01:16PM 42.2833 -71.7078 270° West 143 165 8,000  Level Boston Center
01:17PM 42.2839 -71.7639 271° West 142 163 8,000  Level Boston Center
01:18PM 42.2842 -71.8142 270° West 136 157 8,000  Level Boston Center
01:19PM 42.2844 -71.8647 270° West 131 151 8,000  Level Boston Center
01:20PM 42.2825 -71.9125 267° West 134 154 8,000  Level Boston Center
01:21PM 42.2847 -71.9631 273° West 134 154 8,000  Level Boston Center
01:23PM 42.2850 -72.0136 270° West 131 151 8,000  Level Boston Center
01:24PM 42.2853 -72.0642 270° West 133 153 8,000  Level Boston Center
01:25PM 42.2853 -72.1144 270° West 134 154 8,000  Level Boston Center
01:26PM 42.2875 -72.1678 273° West 132 152 8,000  Level Boston Center
01:27PM 42.3000 -72.2156 289° West 135 155 8,000  Level Boston Center
01:28PM 42.3147 -72.2631 293° West 138 159 8,000  Level Boston Center
01:29PM 42.3275 -72.3136 289° West 137 158 8,000  Level Boston Center
01:30PM 42.3419 -72.3614 292° West 139 160 8,000  Level Boston Center
01:31PM 42.3567 -72.4119 292° West 141 162 8,000  Level Boston Center
01:32PM 42.3692 -72.4625 289° West 139 160 8,000  Level Boston Center
01:33PM 42.3836 -72.5103 292° West 139 160 8,000  Level Boston Center
01:34PM 42.3961 -72.5611 288° West 143 165 8,000  Level Boston Center
01:35PM 42.4128 -72.6117 294° West 141 162 8,000  Level Boston Center
01:36PM 42.4294 -72.6622 294° West 142 163 8,000  Level Boston Center
01:37PM 42.4417 -72.7103 289° West 143 165 8,000  Level Boston Center
01:38PM 42.4561 -72.7636 290° West 143 165 8,000  Level Boston Center
01:39PM 42.4808 -72.8511 291° West 144 166 8,000  Level Boston Center
01:40PM 42.4933 -72.8906 293° West 144 166 8,000  Level Boston Center
01:41PM 42.5097 -72.9442 293° West 146 168 8,100  Climbing Boston Center
01:42PM 42.5242 -72.9978 290° West 148 170 8,000  Descending Boston Center
01:43PM 42.5406 -73.0458 295° West 147 169 8,100  Climbing Boston Center
01:44PM 42.5589 -73.0939 297° West 145 167 8,100 -300 Level Boston Center
01:45PM 42.5858 -73.1422 307° West 154 177 7,600 -480 Descending Boston Center
01:46PM 42.6125 -73.2047 300° West 169 194 7,100 -480 Descending Boston Center
01:47PM 42.6331 -73.2556 299° West 163 188 6,600 -480 Descending Boston Center
01:48PM 42.6597 -73.3097 304° West 161 185 6,200 -480 Descending Boston Center
01:49PM 42.6822 -73.3608 301° West 162 186 5,700 -540 Descending Boston Center
01:50PM 42.7089 -73.4178 303° West 165 190 5,200 -600 Descending Boston Center
01:51PM 42.7314 -73.4717 300° West 166 191 4,600 -660 Descending Boston Center
01:52PM 42.7558 -73.5258 302° West 171 197 3,900 -720 Descending Boston Center
01:54PM 42.7531 -73.5936 267° West 174 200 3,100 -660 Descending Boston Center
01:55PM 42.7525 -73.6503 269° West 124 143 2,500 -720 Descending Boston Center
01:56PM 42.7519 -73.6983 269° West 120 138 1,700 -720 Descending Boston Center
01:57PM 42.7492 -73.7464 266° West 122 140 1,100 -600 Descending Boston Center
01:58PM 42.7489 -73.7831 269° West 107 123 500 -600 Descending Boston Center
02:00PM 42.7333 -73.8000 288° West  Level FlightAware Approximate
02:07PM 42.7491 -73.8020 288° West  Level Estimated
02:08PM 42.7491 -73.8020 288° West  Level Estimated